Time;durP1;ratioP1;P1;durP2;ratioP2;P2;SDS_P1;SDS_P2;PMS_P1;PMS_P2;Temp;Humidity;BMP_temperature;BMP_pressure;BME280_temperature;BME280_humidity;BME280_pressure;Samples;Min_cycle;Max_cycle;Signal;HPM_P1;HPM_P2
2021/09/08 00:01:50;;;;;;;32.55;22.77;;;14.00;99.90;;;;;;4210421;28;20040;-73
2021/09/08 00:03:51;;;;;;;31.15;25.35;;;14.00;99.90;;;;;;4209957;28;20496;-74
2021/09/08 00:05:54;;;;;;;28.60;22.42;;;13.90;99.90;;;;;;4211411;28;20061;-73
2021/09/08 00:07:54;;;;;;;29.67;22.98;;;13.90;99.90;;;;;;4210075;28;20031;-73
2021/09/08 00:09:55;;;;;;;28.00;22.40;;;13.90;99.90;;;;;;4207904;28;20438;-73
2021/09/08 00:11:56;;;;;;;32.80;23.00;;;13.90;99.90;;;;;;4208490;28;20043;-73
2021/09/08 00:13:56;;;;;;;31.08;25.30;;;13.80;99.90;;;;;;4209521;28;20040;-73
2021/09/08 00:15:57;;;;;;;30.13;22.65;;;13.80;99.90;;;;;;4209155;28;20571;-73
2021/09/08 00:17:58;;;;;;;27.40;21.85;;;13.80;99.90;;;;;;4192021;28;20047;-73
2021/09/08 00:19:59;;;;;;;27.75;23.08;;;13.70;99.90;;;;;;4192554;28;20035;-73
2021/09/08 00:21:59;;;;;;;27.58;21.45;;;13.70;99.90;;;;;;4192206;28;20038;-73
2021/09/08 00:24:00;;;;;;;28.38;22.83;;;13.60;99.90;;;;;;4207497;28;20153;-73
2021/09/08 00:26:01;;;;;;;26.30;21.10;;;13.60;99.90;;;;;;4187153;28;20349;-74
2021/09/08 00:28:01;;;;;;;36.08;25.23;;;13.60;99.90;;;;;;4209476;28;20127;-73
2021/09/08 00:30:03;;;;;;;33.97;24.67;;;13.60;99.90;;;;;;4210402;28;20107;-74
2021/09/08 00:32:04;;;;;;;32.65;24.30;;;13.60;99.90;;;;;;4194261;28;20148;-72
2021/09/08 00:34:05;;;;;;;35.97;24.23;;;13.60;99.90;;;;;;4196838;28;20040;-72
2021/09/08 00:36:05;;;;;;;39.10;26.65;;;13.50;99.90;;;;;;4195161;28;20070;-72
2021/09/08 00:38:11;;;;;;;30.10;23.95;;;13.50;99.90;;;;;;4209816;28;20477;-72
2021/09/08 00:40:12;;;;;;;35.83;23.25;;;13.50;99.90;;;;;;4212723;28;20016;-73
2021/09/08 00:42:15;;;;;;;30.58;23.75;;;13.50;99.90;;;;;;4195785;28;20492;-73
2021/09/08 00:44:16;;;;;;;28.65;22.33;;;13.50;99.90;;;;;;4195554;28;20125;-73
2021/09/08 00:46:16;;;;;;;30.25;24.42;;;13.50;99.90;;;;;;4195247;28;20499;-73
2021/09/08 00:48:17;;;;;;;42.47;25.10;;;13.50;99.90;;;;;;4196601;28;20033;-74
2021/09/08 00:50:18;;;;;;;34.28;24.83;;;13.40;99.90;;;;;;4194971;28;20511;-73
2021/09/08 00:52:19;;;;;;;34.88;25.55;;;13.50;99.90;;;;;;4189029;28;20056;-73
2021/09/08 00:54:21;;;;;;;35.00;23.90;;;13.50;99.90;;;;;;4193267;28;20032;-72
2021/09/08 00:56:24;;;;;;;34.33;23.30;;;13.50;99.90;;;;;;4196081;28;20078;-73
2021/09/08 00:58:25;;;;;;;33.40;24.13;;;13.40;99.90;;;;;;4194661;28;20040;-73
2021/09/08 01:00:25;;;;;;;30.35;22.90;;;13.40;99.90;;;;;;4188152;28;20029;-73
2021/09/08 01:02:26;;;;;;;30.38;21.02;;;13.40;99.90;;;;;;4196470;28;20112;-73
2021/09/08 01:04:27;;;;;;;39.30;25.42;;;13.50;99.90;;;;;;4188640;28;20052;-73
2021/09/08 01:06:28;;;;;;;37.75;24.60;;;13.50;99.90;;;;;;4196241;28;20029;-73
2021/09/08 01:08:29;;;;;;;32.70;25.15;;;13.40;99.90;;;;;;4189043;28;20032;-71
2021/09/08 01:10:29;;;;;;;32.72;25.27;;;13.40;99.90;;;;;;4196319;28;20045;-71
2021/09/08 01:12:30;;;;;;;32.60;23.83;;;13.40;99.90;;;;;;4191606;28;20041;-72
2021/09/08 01:14:31;;;;;;;32.53;22.50;;;13.40;99.90;;;;;;4196504;28;20028;-75
2021/09/08 01:16:31;;;;;;;35.53;25.15;;;13.40;99.90;;;;;;4197624;28;20443;-73
2021/09/08 01:18:36;;;;;;;28.40;22.63;;;13.40;99.90;;;;;;4191796;28;20028;-73
2021/09/08 01:20:37;;;;;;;31.98;23.98;;;13.30;99.90;;;;;;4195289;28;20047;-73
2021/09/08 01:23:04;;;;;;;37.30;25.75;;;13.30;99.90;;;;;;4189926;28;20519;-74
2021/09/08 01:25:05;;;;;;;30.98;22.92;;;13.30;99.90;;;;;;4193719;28;20036;-74
2021/09/08 01:27:05;;;;;;;28.65;22.85;;;13.30;99.90;;;;;;4196569;28;20107;-72
2021/09/08 01:29:06;;;;;;;32.67;24.77;;;13.30;99.90;;;;;;4196834;28;20282;-72
2021/09/08 01:31:07;;;;;;;30.05;22.77;;;13.30;99.90;;;;;;4194343;28;20040;-72
2021/09/08 01:33:12;;;;;;;33.88;25.73;;;13.30;99.90;;;;;;4195466;28;20081;-73
2021/09/08 01:35:14;;;;;;;30.73;23.05;;;13.30;99.90;;;;;;4191835;28;20556;-74
2021/09/08 01:37:14;;;;;;;29.73;22.23;;;13.30;99.90;;;;;;4191270;28;20476;-74
2021/09/08 01:39:21;;;;;;;28.98;21.73;;;13.30;99.90;;;;;;4195451;28;20028;-73
2021/09/08 01:41:21;;;;;;;30.85;23.60;;;13.30;99.90;;;;;;4197226;28;20044;-74
2021/09/08 01:43:27;;;;;;;31.23;22.20;;;13.20;99.90;;;;;;4192349;28;20500;-73
2021/09/08 01:45:28;;;;;;;30.17;24.00;;;13.20;99.90;;;;;;4201745;28;20044;-73
2021/09/08 01:47:29;;;;;;;41.08;25.50;;;13.10;99.90;;;;;;4208679;28;20487;-73
2021/09/08 01:49:29;;;;;;;30.80;23.73;;;13.10;99.90;;;;;;4206482;28;20032;-73
2021/09/08 01:51:31;;;;;;;32.67;24.83;;;13.10;99.90;;;;;;4192296;28;20467;-73
2021/09/08 01:53:31;;;;;;;31.33;23.77;;;13.00;99.90;;;;;;4188349;28;20077;-73
2021/09/08 01:55:32;;;;;;;39.67;23.55;;;13.00;99.90;;;;;;4210007;28;20448;-74
2021/09/08 01:57:33;;;;;;;33.22;25.58;;;13.00;99.90;;;;;;4209249;28;20166;-73
2021/09/08 01:59:34;;;;;;;32.78;23.70;;;13.00;99.90;;;;;;4192498;28;20527;-74
2021/09/08 02:01:35;;;;;;;33.53;24.25;;;12.90;99.90;;;;;;4206937;28;20028;-73
2021/09/08 02:03:36;;;;;;;30.77;23.42;;;12.90;99.90;;;;;;4210335;28;20028;-73
2021/09/08 02:05:36;;;;;;;31.13;23.35;;;12.90;99.90;;;;;;4205273;28;20042;-74
2021/09/08 02:07:37;;;;;;;31.83;23.25;;;12.90;99.90;;;;;;4211854;28;20113;-74
2021/09/08 02:09:37;;;;;;;30.95;24.10;;;12.90;99.90;;;;;;4203595;28;20420;-73
2021/09/08 02:11:39;;;;;;;35.45;24.30;;;12.80;99.90;;;;;;4209444;28;20039;-73
2021/09/08 02:13:39;;;;;;;32.47;24.05;;;12.80;99.90;;;;;;4193752;28;20037;-73
2021/09/08 02:15:40;;;;;;;37.45;25.80;;;12.80;99.90;;;;;;4210666;28;20411;-74
2021/09/08 02:17:42;;;;;;;34.80;25.08;;;12.80;99.90;;;;;;4186405;28;20091;-74
2021/09/08 02:19:42;;;;;;;33.13;24.15;;;12.80;99.90;;;;;;4210981;28;20066;-73
2021/09/08 02:21:43;;;;;;;32.60;22.00;;;12.80;99.90;;;;;;4212862;28;20495;-73
2021/09/08 02:23:44;;;;;;;31.55;23.52;;;12.80;99.90;;;;;;4210182;28;20032;-73
2021/09/08 02:25:44;;;;;;;31.65;23.13;;;12.80;99.90;;;;;;4204560;28;20364;-73
2021/09/08 02:27:45;;;;;;;32.50;23.33;;;12.80;99.90;;;;;;4193837;28;20048;-73
2021/09/08 02:29:46;;;;;;;35.60;26.65;;;12.80;99.90;;;;;;4212704;28;20036;-73
2021/09/08 02:31:47;;;;;;;34.50;26.13;;;12.80;99.90;;;;;;4194691;28;20054;-73
2021/09/08 02:33:47;;;;;;;37.70;27.30;;;12.80;99.90;;;;;;4211739;28;20047;-73
2021/09/08 02:35:50;;;;;;;35.45;26.27;;;12.80;99.90;;;;;;4195164;28;20139;-73
2021/09/08 02:37:50;;;;;;;36.57;24.37;;;12.80;99.90;;;;;;4210795;28;20097;-73
2021/09/08 02:39:51;;;;;;;29.67;23.30;;;12.80;99.90;;;;;;4211031;28;20138;-73
2021/09/08 02:41:51;;;;;;;34.45;23.38;;;12.70;99.90;;;;;;4187703;28;20365;-73
2021/09/08 02:43:52;;;;;;;32.60;24.83;;;12.70;99.90;;;;;;4193227;28;20411;-73
2021/09/08 02:45:53;;;;;;;35.20;24.10;;;12.60;99.90;;;;;;4211566;28;20047;-72
2021/09/08 02:47:54;;;;;;;35.67;25.50;;;12.60;99.90;;;;;;4210017;28;20030;-73
2021/09/08 02:49:54;;;;;;;29.83;22.13;;;12.60;99.90;;;;;;4186650;28;20173;-72
2021/09/08 02:51:55;;;;;;;32.20;23.42;;;12.60;99.90;;;;;;4191909;28;20083;-73
2021/09/08 02:53:56;;;;;;;34.00;25.05;;;12.60;99.90;;;;;;4205228;28;20059;-73
2021/09/08 02:55:57;;;;;;;39.95;26.52;;;12.60;99.90;;;;;;4210367;28;20100;-73
2021/09/08 02:57:57;;;;;;;33.67;24.08;;;12.60;99.90;;;;;;4209885;28;20506;-73
2021/09/08 02:59:58;;;;;;;32.08;25.25;;;12.60;99.90;;;;;;4211511;28;20032;-73
2021/09/08 03:01:58;;;;;;;30.83;23.55;;;12.60;99.90;;;;;;4212504;28;20039;-73
2021/09/08 03:03:59;;;;;;;28.90;22.85;;;12.60;99.90;;;;;;4208987;28;20132;-72
2021/09/08 03:05:59;;;;;;;41.08;24.48;;;12.50;99.90;;;;;;4211769;28;20036;-73
2021/09/08 03:08:00;;;;;;;40.47;26.00;;;12.50;99.90;;;;;;4209049;28;20073;-73
2021/09/08 03:10:01;;;;;;;37.03;26.70;;;12.50;99.90;;;;;;4205263;28;20035;-73
2021/09/08 03:12:01;;;;;;;41.13;27.27;;;12.60;99.90;;;;;;4210099;28;20110;-73
2021/09/08 03:14:02;;;;;;;31.20;22.67;;;12.60;99.90;;;;;;4212156;28;20105;-73
2021/09/08 03:16:03;;;;;;;34.03;24.33;;;12.50;99.90;;;;;;4209999;28;20035;-74
2021/09/08 03:18:05;;;;;;;36.42;25.45;;;12.50;99.90;;;;;;4194309;28;20032;-73
2021/09/08 03:20:06;;;;;;;36.23;24.33;;;12.50;99.90;;;;;;4193708;28;20036;-73
2021/09/08 03:22:07;;;;;;;30.00;23.27;;;12.50;99.90;;;;;;4211447;28;20032;-73
2021/09/08 03:24:08;;;;;;;31.55;22.17;;;12.50;99.90;;;;;;4208758;28;20035;-73
2021/09/08 03:26:08;;;;;;;33.35;24.13;;;12.50;99.90;;;;;;4191413;28;20037;-73
2021/09/08 03:28:09;;;;;;;34.05;24.58;;;12.40;99.90;;;;;;4210354;28;20024;-72
2021/09/08 03:30:10;;;;;;;34.05;24.08;;;12.40;99.90;;;;;;4193482;28;20487;-73
2021/09/08 03:32:11;;;;;;;32.45;23.63;;;12.40;99.90;;;;;;4208638;28;20035;-72
2021/09/08 03:34:12;;;;;;;34.83;24.38;;;12.40;99.90;;;;;;4205630;28;20070;-72
2021/09/08 03:36:12;;;;;;;39.08;23.75;;;12.40;99.90;;;;;;4209009;28;20426;-72
2021/09/08 03:38:13;;;;;;;34.50;25.48;;;12.40;99.90;;;;;;4186508;28;20028;-72
2021/09/08 03:40:14;;;;;;;36.45;24.95;;;12.40;99.90;;;;;;4193095;28;20024;-73
2021/09/08 03:42:14;;;;;;;30.80;22.70;;;12.40;99.90;;;;;;4212305;28;20112;-73
2021/09/08 03:44:15;;;;;;;32.30;23.42;;;12.40;99.90;;;;;;4194210;28;20048;-73
2021/09/08 03:46:15;;;;;;;38.80;25.88;;;12.30;99.90;;;;;;4211781;28;20381;-73
2021/09/08 03:48:16;;;;;;;39.70;24.95;;;12.40;99.90;;;;;;4209130;28;20052;-73
2021/09/08 03:50:17;;;;;;;33.30;24.48;;;12.40;99.90;;;;;;4205111;28;20032;-73
2021/09/08 03:52:18;;;;;;;35.17;24.23;;;12.40;99.90;;;;;;4210501;28;20422;-73
2021/09/08 03:54:18;;;;;;;42.10;28.40;;;12.40;99.90;;;;;;4211139;28;20029;-73
2021/09/08 03:56:19;;;;;;;37.05;24.60;;;12.30;99.90;;;;;;4208700;28;20047;-73
2021/09/08 03:58:20;;;;;;;35.63;24.05;;;12.30;99.90;;;;;;4186026;28;20365;-72
2021/09/08 04:00:20;;;;;;;31.77;23.70;;;12.30;99.90;;;;;;4206993;28;20036;-72
2021/09/08 04:02:21;;;;;;;42.30;28.27;;;12.30;99.90;;;;;;4205323;28;20123;-73
2021/09/08 04:04:22;;;;;;;44.92;28.75;;;12.30;99.90;;;;;;4208676;28;20077;-73
2021/09/08 04:06:22;;;;;;;43.22;26.90;;;12.30;99.90;;;;;;4206858;28;20499;-73
2021/09/08 04:08:23;;;;;;;43.70;26.70;;;12.30;99.90;;;;;;4212858;28;20061;-73
2021/09/08 04:10:24;;;;;;;42.35;28.50;;;12.30;99.90;;;;;;4213526;28;20403;-73
2021/09/08 04:12:24;;;;;;;41.05;28.13;;;12.30;99.90;;;;;;4213533;28;20078;-74
2021/09/08 04:14:25;;;;;;;39.75;27.27;;;12.30;99.90;;;;;;4209334;28;20032;-73
2021/09/08 04:16:25;;;;;;;45.78;28.88;;;12.30;99.90;;;;;;4212111;28;20059;-73
2021/09/08 04:18:26;;;;;;;44.83;30.30;;;12.30;99.90;;;;;;4207892;28;20032;-73
2021/09/08 04:20:27;;;;;;;40.53;25.75;;;12.30;99.90;;;;;;4197239;28;20618;-73
2021/09/08 04:22:27;;;;;;;43.50;27.20;;;12.30;99.90;;;;;;4211620;28;20119;-74
2021/09/08 04:24:28;;;;;;;43.95;28.38;;;12.30;99.90;;;;;;4214340;28;20047;-74
2021/09/08 04:26:29;;;;;;;40.70;25.88;;;12.30;99.90;;;;;;4212914;28;20443;-73
2021/09/08 04:28:30;;;;;;;44.05;27.08;;;12.30;99.90;;;;;;4211821;28;20401;-73
2021/09/08 04:30:30;;;;;;;50.30;30.45;;;12.30;99.90;;;;;;4207537;28;20024;-72
2021/09/08 04:32:31;;;;;;;48.20;31.27;;;12.30;99.90;;;;;;4211867;28;20529;-73
2021/09/08 04:34:32;;;;;;;49.67;27.55;;;12.20;99.90;;;;;;4206028;28;20451;-73
2021/09/08 04:36:33;;;;;;;42.40;26.25;;;12.20;99.90;;;;;;4212261;28;21367;-72
2021/09/08 04:38:34;;;;;;;37.35;24.98;;;12.20;99.90;;;;;;4206527;28;20062;-72
2021/09/08 04:40:35;;;;;;;38.25;26.58;;;12.20;99.90;;;;;;4212442;28;20028;-74
2021/09/08 04:42:35;;;;;;;39.63;25.60;;;12.20;99.90;;;;;;4196571;28;20192;-73
2021/09/08 04:44:36;;;;;;;41.90;27.77;;;12.20;99.90;;;;;;4212161;28;20067;-73
2021/09/08 04:46:36;;;;;;;41.70;26.30;;;12.20;99.90;;;;;;4189814;28;20068;-73
2021/09/08 04:48:37;;;;;;;39.55;26.25;;;12.20;99.90;;;;;;4196083;28;20044;-73
2021/09/08 04:50:37;;;;;;;42.17;26.73;;;12.10;99.90;;;;;;4188754;28;20036;-73
2021/09/08 04:52:38;;;;;;;38.10;25.67;;;12.20;99.90;;;;;;4196710;28;20033;-73
2021/09/08 04:54:39;;;;;;;36.90;25.35;;;12.10;99.90;;;;;;4188752;28;20043;-72
2021/09/08 04:56:39;;;;;;;47.83;27.77;;;12.10;99.90;;;;;;4195709;28;20400;-72
2021/09/08 04:58:40;;;;;;;43.08;27.15;;;12.10;99.90;;;;;;4196582;28;20062;-72
2021/09/08 05:00:41;;;;;;;42.30;26.98;;;12.10;99.90;;;;;;4195786;28;20021;-73
2021/09/08 05:02:41;;;;;;;40.20;27.35;;;12.20;99.90;;;;;;4189327;28;20041;-73
2021/09/08 05:04:42;;;;;;;40.00;27.25;;;12.10;99.90;;;;;;4195212;28;20131;-73
2021/09/08 05:06:43;;;;;;;41.17;26.13;;;12.20;99.90;;;;;;4196182;28;20035;-74
2021/09/08 05:08:45;;;;;;;50.25;31.15;;;12.10;99.90;;;;;;4195416;28;20409;-74
2021/09/08 05:10:46;;;;;;;47.47;30.58;;;12.20;99.90;;;;;;4195843;28;20515;-74
2021/09/08 05:12:46;;;;;;;53.47;30.40;;;12.20;99.90;;;;;;4195945;28;20121;-73
2021/09/08 05:14:47;;;;;;;40.83;27.25;;;12.30;99.90;;;;;;4197466;28;20112;-74
2021/09/08 05:16:48;;;;;;;44.17;27.90;;;12.30;99.90;;;;;;4193720;28;20446;-74
2021/09/08 05:18:48;;;;;;;39.88;27.80;;;12.30;99.90;;;;;;4199005;28;20028;-73
2021/09/08 05:20:49;;;;;;;39.00;25.52;;;12.30;99.90;;;;;;4194074;28;20063;-73
2021/09/08 05:22:49;;;;;;;44.85;27.33;;;12.30;99.90;;;;;;4195910;28;20025;-73
2021/09/08 05:24:50;;;;;;;43.85;28.15;;;12.30;99.90;;;;;;4193234;28;20454;-74
2021/09/08 05:26:51;;;;;;;49.03;29.33;;;12.40;99.90;;;;;;4194427;28;20029;-72
2021/09/08 05:28:51;;;;;;;47.10;28.65;;;12.40;99.90;;;;;;4195334;28;20074;-73
2021/09/08 05:30:52;;;;;;;41.58;26.45;;;12.40;99.90;;;;;;4196399;28;20040;-72
2021/09/08 05:32:52;;;;;;;46.22;29.23;;;12.40;99.90;;;;;;4193062;28;20127;-73
2021/09/08 05:34:55;;;;;;;46.47;26.60;;;12.40;99.90;;;;;;4195421;28;20037;-72
2021/09/08 05:36:56;;;;;;;42.28;26.38;;;12.50;99.90;;;;;;4190254;28;20488;-72
2021/09/08 05:38:57;;;;;;;37.90;25.67;;;12.50;99.90;;;;;;4193358;28;20089;-72
2021/09/08 05:40:57;;;;;;;35.67;24.42;;;12.50;99.90;;;;;;4193133;28;20089;-72
2021/09/08 05:43:01;;;;;;;36.92;24.20;;;12.50;99.90;;;;;;4195148;28;20032;-72
2021/09/08 05:45:02;;;;;;;47.22;30.10;;;12.60;99.90;;;;;;4197585;28;20130;-72
2021/09/08 05:47:03;;;;;;;41.08;27.83;;;12.60;99.90;;;;;;4211271;28;20028;-72
2021/09/08 05:49:04;;;;;;;48.55;29.30;;;12.70;99.90;;;;;;4193938;28;20111;-72
2021/09/08 05:51:04;;;;;;;46.08;30.75;;;12.70;99.90;;;;;;4194169;28;20119;-73
2021/09/08 05:53:06;;;;;;;46.40;31.00;;;12.80;99.90;;;;;;4208421;28;20032;-72
2021/09/08 05:55:07;;;;;;;44.72;30.73;;;12.80;99.90;;;;;;4211903;28;20046;-72
2021/09/08 05:57:08;;;;;;;49.28;31.88;;;12.90;99.90;;;;;;4209663;28;20463;-72
2021/09/08 05:59:08;;;;;;;40.90;28.33;;;12.90;99.90;;;;;;4210877;28;20024;-73
2021/09/08 06:01:09;;;;;;;43.20;27.65;;;13.00;99.90;;;;;;4203338;28;20032;-73
2021/09/08 06:03:09;;;;;;;38.05;27.92;;;13.00;99.90;;;;;;4202298;28;20444;-72
2021/09/08 06:05:10;;;;;;;44.05;28.90;;;13.10;99.90;;;;;;4211369;28;20081;-72
2021/09/08 06:07:11;;;;;;;40.17;27.17;;;13.10;99.90;;;;;;4212660;28;20500;-72
2021/09/08 06:09:11;;;;;;;37.40;27.13;;;13.10;99.90;;;;;;4211962;28;20038;-73
2021/09/08 06:11:12;;;;;;;44.90;27.92;;;13.20;99.90;;;;;;4208354;28;20133;-72
2021/09/08 06:13:13;;;;;;;46.15;29.58;;;13.30;99.90;;;;;;4207506;28;20123;-73
2021/09/08 06:15:15;;;;;;;48.72;29.67;;;13.30;99.90;;;;;;4209588;28;20083;-73
2021/09/08 06:17:16;;;;;;;51.88;33.40;;;13.40;99.90;;;;;;4194892;28;20032;-73
2021/09/08 06:19:17;;;;;;;40.22;30.02;;;13.50;99.90;;;;;;4191258;28;20171;-73
2021/09/08 06:21:18;;;;;;;45.60;31.42;;;13.60;99.90;;;;;;4212149;28;20040;-72
2021/09/08 06:23:18;;;;;;;48.00;30.52;;;13.80;99.90;;;;;;4209584;28;20020;-72
2021/09/08 06:25:19;;;;;;;48.53;28.88;;;13.90;99.90;;;;;;4190515;28;20083;-72
2021/09/08 06:27:19;;;;;;;48.03;30.15;;;14.00;99.90;;;;;;4207384;28;20032;-72
2021/09/08 06:29:20;;;;;;;43.88;29.23;;;14.10;99.90;;;;;;4212824;28;20028;-72
2021/09/08 06:31:21;;;;;;;44.17;30.13;;;14.10;99.90;;;;;;4209274;28;20502;-72
2021/09/08 06:33:22;;;;;;;40.67;28.40;;;14.20;99.90;;;;;;4209586;28;20040;-73
2021/09/08 06:35:23;;;;;;;39.78;27.98;;;14.20;99.90;;;;;;4209472;28;20052;-73
2021/09/08 06:37:23;;;;;;;41.42;29.38;;;14.30;99.90;;;;;;4211218;28;20040;-72
2021/09/08 06:39:24;;;;;;;37.80;28.73;;;14.40;99.90;;;;;;4210641;28;20398;-73
2021/09/08 06:41:25;;;;;;;37.38;28.92;;;14.50;99.90;;;;;;4195014;28;20040;-73
2021/09/08 06:43:26;;;;;;;41.38;28.70;;;14.60;99.90;;;;;;4211132;28;20111;-73
2021/09/08 06:45:26;;;;;;;38.30;26.98;;;14.70;99.90;;;;;;4185556;28;20168;-73
2021/09/08 06:47:27;;;;;;;35.55;26.83;;;14.80;99.90;;;;;;4211256;28;20036;-73
2021/09/08 06:49:28;;;;;;;43.05;27.38;;;15.00;99.90;;;;;;4211621;28;20032;-73
2021/09/08 06:51:28;;;;;;;34.63;24.95;;;15.20;99.90;;;;;;4210105;28;20502;-72
2021/09/08 06:53:29;;;;;;;35.58;24.83;;;15.30;99.90;;;;;;4211430;28;20420;-73
2021/09/08 06:55:30;;;;;;;38.20;23.98;;;15.50;99.90;;;;;;4210684;28;20495;-71
2021/09/08 06:57:30;;;;;;;31.50;23.42;;;15.70;99.90;;;;;;4211466;28;20036;-72
2021/09/08 06:59:31;;;;;;;32.10;23.92;;;15.90;99.90;;;;;;4193094;28;20041;-72
2021/09/08 07:01:32;;;;;;;30.58;22.77;;;16.10;99.90;;;;;;4208926;28;20024;-73
2021/09/08 07:03:33;;;;;;;29.40;21.88;;;16.20;99.90;;;;;;4210493;28;20040;-73
2021/09/08 07:05:35;;;;;;;26.73;21.95;;;16.30;99.90;;;;;;4209563;28;20083;-71
2021/09/08 07:07:36;;;;;;;33.65;22.27;;;16.40;99.90;;;;;;4209069;28;20063;-71
2021/09/08 07:09:36;;;;;;;31.55;21.52;;;16.40;99.90;;;;;;4211912;28;20036;-71
2021/09/08 07:11:37;;;;;;;31.50;22.67;;;16.50;99.90;;;;;;4210626;28;20039;-73
2021/09/08 07:13:37;;;;;;;28.23;21.00;;;16.50;99.90;;;;;;4211083;28;20047;-72
2021/09/08 07:15:38;;;;;;;32.00;21.67;;;16.60;99.90;;;;;;4211116;28;20096;-72
2021/09/08 07:17:38;;;;;;;26.83;21.40;;;16.70;99.90;;;;;;4210539;28;20032;-72
2021/09/08 07:19:39;;;;;;;26.23;21.05;;;16.70;99.90;;;;;;4211407;28;20029;-72
2021/09/08 07:21:39;;;;;;;26.80;21.73;;;16.80;99.90;;;;;;4210770;28;20509;-72
2021/09/08 07:23:40;;;;;;;27.83;22.70;;;16.90;99.90;;;;;;4193442;28;20357;-72
2021/09/08 07:25:40;;;;;;;29.63;21.63;;;17.00;99.90;;;;;;4210829;28;20379;-72
2021/09/08 07:27:41;;;;;;;24.77;19.83;;;17.10;99.90;;;;;;4210679;28;20507;-73
2021/09/08 07:29:42;;;;;;;28.02;21.17;;;17.20;99.90;;;;;;4210731;28;20040;-73
2021/09/08 07:31:42;;;;;;;27.65;22.02;;;17.30;99.90;;;;;;4194282;28;20550;-72
2021/09/08 07:33:43;;;;;;;27.88;21.63;;;17.30;99.90;;;;;;4210587;28;20043;-73
2021/09/08 07:35:43;;;;;;;25.33;20.60;;;17.40;99.90;;;;;;4211425;28;20028;-72
2021/09/08 07:37:44;;;;;;;24.92;20.58;;;17.50;99.90;;;;;;4193856;28;20492;-72
2021/09/08 07:39:44;;;;;;;25.45;21.70;;;17.60;99.90;;;;;;4192296;28;20468;-72
2021/09/08 07:41:45;;;;;;;22.67;19.77;;;17.70;99.90;;;;;;4210720;28;20044;-72
2021/09/08 07:43:46;;;;;;;21.42;18.77;;;17.90;99.90;;;;;;4210071;28;20060;-72
2021/09/08 07:45:48;;;;;;;23.60;19.92;;;18.00;99.90;;;;;;4210359;28;20043;-72
2021/09/08 07:47:49;;;;;;;29.25;22.02;;;18.20;99.90;;;;;;4193188;28;20040;-71
2021/09/08 07:49:49;;;;;;;27.45;21.67;;;18.30;99.90;;;;;;4210733;28;20105;-72
2021/09/08 07:51:50;;;;;;;30.23;19.85;;;18.50;99.90;;;;;;4208984;28;20054;-71
2021/09/08 07:53:51;;;;;;;23.23;18.98;;;18.60;99.90;;;;;;4185327;28;20481;-73
2021/09/08 07:55:51;;;;;;;28.63;19.20;;;18.60;99.90;;;;;;4211038;28;20047;-72
2021/09/08 07:57:52;;;;;;;22.02;18.25;;;18.70;99.90;;;;;;4211031;28;20056;-72
2021/09/08 07:59:52;;;;;;;25.77;17.95;;;18.80;99.90;;;;;;4193443;28;20047;-72
2021/09/08 08:01:53;;;;;;;21.42;18.10;;;18.90;99.90;;;;;;4211819;28;20030;-71
2021/09/08 08:03:53;;;;;;;24.25;17.60;;;19.00;99.90;;;;;;4211113;28;20472;-72
2021/09/08 08:05:54;;;;;;;23.88;17.83;;;19.10;99.90;;;;;;4210398;28;20104;-72
2021/09/08 08:07:55;;;;;;;26.55;18.13;;;19.30;99.90;;;;;;4193479;28;20043;-73
2021/09/08 08:09:56;;;;;;;24.23;18.25;;;19.40;99.90;;;;;;4200376;28;20028;-71
2021/09/08 08:11:56;;;;;;;21.42;17.13;;;19.50;99.90;;;;;;4208771;28;20109;-73
2021/09/08 08:13:57;;;;;;;22.13;17.42;;;19.70;99.90;;;;;;4210827;28;20071;-72
2021/09/08 08:15:58;;;;;;;21.00;17.90;;;19.90;99.90;;;;;;4210305;28;20421;-72
2021/09/08 08:17:59;;;;;;;21.90;16.50;;;20.00;99.90;;;;;;4193228;28;20041;-72
2021/09/08 08:19:59;;;;;;;21.95;15.90;;;20.10;99.90;;;;;;4208498;28;20173;-72
2021/09/08 08:22:00;;;;;;;18.77;15.93;;;20.20;99.90;;;;;;4207607;28;20032;-72
2021/09/08 08:24:02;;;;;;;24.10;18.40;;;20.40;99.90;;;;;;4210861;28;20039;-72
2021/09/08 08:26:02;;;;;;;20.52;15.95;;;20.50;99.90;;;;;;4207922;28;20044;-71
2021/09/08 08:28:04;;;;;;;19.13;16.65;;;20.60;99.90;;;;;;4208373;28;20024;-72
2021/09/08 08:30:07;;;;;;;18.00;15.35;;;20.70;99.90;;;;;;4192579;28;20554;-72
2021/09/08 08:32:08;;;;;;;20.65;15.82;;;20.80;99.90;;;;;;4209484;28;20032;-71
2021/09/08 08:34:08;;;;;;;20.73;16.05;;;20.90;99.90;;;;;;4210955;28;20028;-72
2021/09/08 08:36:09;;;;;;;19.50;17.23;;;21.10;99.90;;;;;;4208556;28;20039;-73
2021/09/08 08:38:10;;;;;;;18.85;15.68;;;21.20;99.90;;;;;;4211057;28;20080;-72
2021/09/08 08:40:12;;;;;;;19.58;15.52;;;21.40;99.90;;;;;;4208044;28;20402;-73
2021/09/08 08:42:21;;;;;;;24.97;16.53;;;21.50;99.90;;;;;;4208361;28;20119;-72
2021/09/08 08:44:25;;;;;;;21.20;15.23;;;21.60;99.90;;;;;;4208353;28;20274;-72
2021/09/08 08:46:26;;;;;;;20.90;15.75;;;21.70;99.90;;;;;;4193073;28;20127;-72
2021/09/08 08:48:26;;;;;;;21.65;15.18;;;21.80;99.90;;;;;;4207120;28;20396;-72
2021/09/08 08:50:28;;;;;;;18.75;14.90;;;21.90;99.90;;;;;;4211302;28;20032;-71
2021/09/08 08:52:28;;;;;;;19.38;14.35;;;22.00;99.90;;;;;;4212307;28;20059;-71
2021/09/08 08:54:29;;;;;;;17.95;14.27;;;22.00;99.90;;;;;;4196883;28;20052;-74
2021/09/08 08:56:29;;;;;;;20.08;15.35;;;22.20;99.90;;;;;;4212270;28;20028;-72
2021/09/08 08:58:30;;;;;;;19.80;14.15;;;22.30;99.90;;;;;;4196715;28;20414;-72
2021/09/08 09:00:31;;;;;;;19.13;15.65;;;22.40;99.90;;;;;;4211921;28;20055;-73
2021/09/08 09:02:32;;;;;;;19.73;15.55;;;22.50;99.90;;;;;;4213789;28;20032;-73
2021/09/08 09:04:38;;;;;;;23.13;16.02;;;22.60;99.90;;;;;;4207273;28;20066;-70
2021/09/08 09:06:42;;;;;;;21.75;15.73;;;22.70;99.90;;;;;;4204402;28;20085;-71
2021/09/08 09:08:42;;;;;;;18.85;15.18;;;22.90;99.90;;;;;;4211832;28;20028;-72
2021/09/08 09:10:43;;;;;;;17.83;15.93;;;23.10;99.90;;;;;;4204249;28;20043;-73
2021/09/08 09:12:45;;;;;;;18.92;15.45;;;23.30;99.90;;;;;;4195778;28;20029;-72
2021/09/08 09:14:48;;;;;;;16.15;14.32;;;23.50;99.90;;;;;;4214588;28;20107;-72
2021/09/08 09:16:49;;;;;;;18.83;14.85;;;23.70;99.90;;;;;;4211878;28;20131;-72
2021/09/08 09:18:50;;;;;;;21.08;15.68;;;23.80;99.90;;;;;;4214690;28;20024;-73
2021/09/08 09:20:53;;;;;;;28.88;16.20;;;24.00;99.90;;;;;;4208676;28;20029;-73
2021/09/08 09:22:57;;;;;;;19.73;15.30;;;24.10;99.90;;;;;;4200009;28;20032;-72
2021/09/08 09:24:58;;;;;;;20.58;16.27;;;24.20;99.90;;;;;;4207219;28;20048;-73
2021/09/08 09:27:01;;;;;;;20.33;16.15;;;24.40;99.90;;;;;;4213209;28;20086;-73
2021/09/08 09:29:06;;;;;;;;;;;24.70;99.90;;;;;;4211534;28;20040;-72
2021/09/08 09:31:18;;;;;;;17.98;14.32;;;24.90;99.90;;;;;;4212794;28;19919;-72
2021/09/08 09:33:29;;;;;;;16.30;13.73;;;25.20;99.90;;;;;;4211394;28;20051;-72
2021/09/08 09:35:32;;;;;;;17.70;15.05;;;25.30;99.90;;;;;;4202150;28;20040;-71
2021/09/08 09:37:34;;;;;;;19.85;14.82;;;25.50;99.90;;;;;;4207678;28;20129;-71
2021/09/08 09:39:38;;;;;;;16.80;14.98;;;25.80;99.90;;;;;;4205971;28;20086;-71
2021/09/08 09:41:38;;;;;;;16.15;14.45;;;26.00;99.90;;;;;;4211746;28;20024;-70
2021/09/08 09:43:43;;;;;;;16.88;13.18;;;26.20;99.90;;;;;;4194903;28;20455;-72
2021/09/08 09:45:45;;;;;;;16.00;14.40;;;26.50;99.90;;;;;;4212079;28;20047;-72
2021/09/08 09:47:48;;;;;;;16.63;14.75;;;26.50;99.90;;;;;;4213678;28;20032;-72
2021/09/08 09:49:53;;;;;;;17.88;16.10;;;26.40;99.90;;;;;;4208283;28;20037;-72
2021/09/08 09:51:55;;;;;;;16.52;14.77;;;26.30;99.90;;;;;;4204506;28;20021;-72
2021/09/08 09:53:56;;;;;;;15.63;13.95;;;26.40;99.90;;;;;;4203272;28;20574;-72
2021/09/08 09:55:58;;;;;;;15.82;14.10;;;26.60;99.90;;;;;;4206758;28;20020;-73
2021/09/08 09:57:59;;;;;;;16.27;13.37;;;27.10;99.90;;;;;;4206974;28;20036;-72
2021/09/08 10:00:00;;;;;;;15.88;14.18;;;27.40;99.90;;;;;;4195847;28;20384;-72
2021/09/08 10:02:01;;;;;;;19.25;13.13;;;27.70;99.90;;;;;;4212711;28;20036;-71
2021/09/08 10:04:02;;;;;;;14.45;12.98;;;27.80;99.90;;;;;;4209665;28;20439;-72
2021/09/08 10:06:02;;;;;;;14.63;12.50;;;28.00;99.90;;;;;;4218675;28;20024;-72
2021/09/08 10:08:05;;;;;;;16.00;14.30;;;28.30;99.90;;;;;;4210200;28;20159;-73
2021/09/08 10:10:24;;;;;;;15.50;12.65;;;28.40;99.90;;;;;;4212404;28;20028;-72
2021/09/08 10:12:32;;;;;;;17.02;13.60;;;28.60;99.90;;;;;;4191647;28;20421;-71
2021/09/08 10:14:33;;;;;;;14.30;12.52;;;28.50;99.90;;;;;;4208256;28;20021;-72
2021/09/08 10:16:35;;;;;;;16.65;12.13;;;28.30;99.90;;;;;;4210303;28;20034;-72